sensor_id;sensor_type;location;lat;lon;timestamp;pressure;altitude;pressure_sealevel;temperature;humidity
75759;BME280;64371;47.566;19.086;2023-01-20T00:00:51;99695.41;;;1.40;86.02
75759;BME280;64371;47.566;19.086;2023-01-20T00:03:57;99690.47;;;1.38;86.30
75759;BME280;64371;47.566;19.086;2023-01-20T00:07:02;99690.69;;;1.37;86.06
75759;BME280;64371;47.566;19.086;2023-01-20T00:10:07;99688.09;;;1.37;86.09
75759;BME280;64371;47.566;19.086;2023-01-20T00:13:10;99686.84;;;1.39;85.81
75759;BME280;64371;47.566;19.086;2023-01-20T00:16:15;99681.56;;;1.34;86.09
75759;BME280;64371;47.566;19.086;2023-01-20T00:19:23;99686.75;;;1.34;86.20
75759;BME280;64371;47.566;19.086;2023-01-20T00:22:28;99696.13;;;1.35;85.74
75759;BME280;64371;47.566;19.086;2023-01-20T00:25:36;99688.25;;;1.30;85.53
75759;BME280;64371;47.566;19.086;2023-01-20T00:28:41;99706.63;;;1.28;86.17
75759;BME280;64371;47.566;19.086;2023-01-20T00:31:48;99710.56;;;1.31;85.81
75759;BME280;64371;47.566;19.086;2023-01-20T00:34:51;99711.69;;;1.35;85.88
75759;BME280;64371;47.566;19.086;2023-01-20T00:37:54;99719.03;;;1.38;85.87
75759;BME280;64371;47.566;19.086;2023-01-20T00:41:06;99724.53;;;1.42;85.73
75759;BME280;64371;47.566;19.086;2023-01-20T00:44:08;99732.16;;;1.48;85.83
75759;BME280;64371;47.566;19.086;2023-01-20T00:47:13;99730.34;;;1.49;85.43
75759;BME280;64371;47.566;19.086;2023-01-20T00:50:20;99728.00;;;1.47;85.62
75759;BME280;64371;47.566;19.086;2023-01-20T00:53:34;99744.69;;;1.51;85.35
75759;BME280;64371;47.566;19.086;2023-01-20T00:56:37;99753.28;;;1.52;85.02
75759;BME280;64371;47.566;19.086;2023-01-20T00:59:39;99744.22;;;1.54;85.34
75759;BME280;64371;47.566;19.086;2023-01-20T01:02:43;99738.69;;;1.51;85.41
75759;BME280;64371;47.566;19.086;2023-01-20T01:05:46;99747.28;;;1.51;85.63
75759;BME280;64371;47.566;19.086;2023-01-20T01:08:52;99721.78;;;1.48;85.06
75759;BME280;64371;47.566;19.086;2023-01-20T01:11:57;99721.00;;;1.48;85.30
75759;BME280;64371;47.566;19.086;2023-01-20T01:15:04;99702.03;;;1.47;85.54
75759;BME280;64371;47.566;19.086;2023-01-20T01:18:09;99703.50;;;1.43;85.61
75759;BME280;64371;47.566;19.086;2023-01-20T01:21:21;99695.72;;;1.43;85.21
75759;BME280;64371;47.566;19.086;2023-01-20T01:24:24;99695.97;;;1.42;85.66
75759;BME280;64371;47.566;19.086;2023-01-20T01:27:35;99690.78;;;1.42;86.18
75759;BME280;64371;47.566;19.086;2023-01-20T01:30:39;99685.13;;;1.45;85.83
75759;BME280;64371;47.566;19.086;2023-01-20T01:33:41;99678.66;;;1.47;85.48
75759;BME280;64371;47.566;19.086;2023-01-20T01:36:45;99668.97;;;1.43;85.83
75759;BME280;64371;47.566;19.086;2023-01-20T01:39:47;99673.47;;;1.47;85.89
75759;BME280;64371;47.566;19.086;2023-01-20T01:42:54;99673.94;;;1.44;85.16
75759;BME280;64371;47.566;19.086;2023-01-20T01:45:57;99663.88;;;1.48;85.58
75759;BME280;64371;47.566;19.086;2023-01-20T01:49:23;99674.09;;;1.54;85.90
75759;BME280;64371;47.566;19.086;2023-01-20T01:52:32;99664.72;;;1.53;85.89
75759;BME280;64371;47.566;19.086;2023-01-20T01:55:38;99662.63;;;1.50;85.50
75759;BME280;64371;47.566;19.086;2023-01-20T01:58:50;99659.69;;;1.47;85.28
75759;BME280;64371;47.566;19.086;2023-01-20T02:01:59;99654.16;;;1.43;85.44
75759;BME280;64371;47.566;19.086;2023-01-20T02:05:05;99657.25;;;1.40;85.81
75759;BME280;64371;47.566;19.086;2023-01-20T02:08:12;99653.31;;;1.38;85.64
75759;BME280;64371;47.566;19.086;2023-01-20T02:11:17;99651.97;;;1.35;86.19
75759;BME280;64371;47.566;19.086;2023-01-20T02:14:25;99651.19;;;1.34;85.78
75759;BME280;64371;47.566;19.086;2023-01-20T02:18:09;99645.66;;;1.31;85.61
75759;BME280;64371;47.566;19.086;2023-01-20T02:25:14;99639.84;;;1.41;85.90
75759;BME280;64371;47.566;19.086;2023-01-20T02:35:36;99657.09;;;1.47;85.46
75759;BME280;64371;47.566;19.086;2023-01-20T02:38:51;99659.44;;;1.48;84.47
75759;BME280;64371;47.566;19.086;2023-01-20T02:42:11;99657.19;;;1.52;84.95
75759;BME280;64371;47.566;19.086;2023-01-20T02:45:23;99651.19;;;1.51;84.82
75759;BME280;64371;47.566;19.086;2023-01-20T02:49:51;99661.91;;;1.55;85.25
75759;BME280;64371;47.566;19.086;2023-01-20T02:52:25;99672.84;;;1.57;84.84
75759;BME280;64371;47.566;19.086;2023-01-20T02:55:40;99663.00;;;1.59;85.01
75759;BME280;64371;47.566;19.086;2023-01-20T02:58:48;99672.13;;;1.61;84.64
75759;BME280;64371;47.566;19.086;2023-01-20T03:01:58;99674.47;;;1.63;84.99
75759;BME280;64371;47.566;19.086;2023-01-20T03:05:14;99680.00;;;1.66;85.14
75759;BME280;64371;47.566;19.086;2023-01-20T03:08:23;99683.94;;;1.69;85.42
75759;BME280;64371;47.566;19.086;2023-01-20T03:11:39;99690.69;;;1.70;84.97
75759;BME280;64371;47.566;19.086;2023-01-20T03:14:51;99690.69;;;1.70;85.37
75759;BME280;64371;47.566;19.086;2023-01-20T03:17:56;99681.88;;;1.71;85.61
75759;BME280;64371;47.566;19.086;2023-01-20T03:20:59;99692.59;;;1.74;85.23
75759;BME280;64371;47.566;19.086;2023-01-20T03:24:07;99700.63;;;1.73;85.02
75759;BME280;64371;47.566;19.086;2023-01-20T03:27:17;99703.31;;;1.61;84.69
75759;BME280;64371;47.566;19.086;2023-01-20T03:30:23;99703.75;;;1.58;84.75
75759;BME280;64371;47.566;19.086;2023-01-20T03:33:29;99702.22;;;1.57;84.68
75759;BME280;64371;47.566;19.086;2023-01-20T03:36:34;99711.09;;;1.61;84.81
75759;BME280;64371;47.566;19.086;2023-01-20T03:39:39;99711.63;;;1.63;84.89
75759;BME280;64371;47.566;19.086;2023-01-20T03:46:19;99711.47;;;1.70;85.49
75759;BME280;64371;47.566;19.086;2023-01-20T03:59:24;99686.00;;;1.67;85.83
75759;BME280;64371;47.566;19.086;2023-01-20T04:02:36;99679.91;;;1.61;85.54
75759;BME280;64371;47.566;19.086;2023-01-20T04:05:51;99682.81;;;1.65;85.76
75759;BME280;64371;47.566;19.086;2023-01-20T04:09:02;99686.75;;;1.67;85.75
75759;BME280;64371;47.566;19.086;2023-01-20T04:12:10;99681.81;;;1.66;86.10
75759;BME280;64371;47.566;19.086;2023-01-20T04:15:15;99677.63;;;1.65;86.04
75759;BME280;64371;47.566;19.086;2023-01-20T04:18:24;99686.91;;;1.61;85.66
75759;BME280;64371;47.566;19.086;2023-01-20T04:21:43;99685.38;;;1.60;85.52
75759;BME280;64371;47.566;19.086;2023-01-20T04:25:13;99680.63;;;1.57;85.38
75759;BME280;64371;47.566;19.086;2023-01-20T04:28:18;99680.78;;;1.50;85.43
75759;BME280;64371;47.566;19.086;2023-01-20T04:31:20;99682.59;;;1.50;86.09
75759;BME280;64371;47.566;19.086;2023-01-20T04:34:32;99692.50;;;1.53;85.77
75759;BME280;64371;47.566;19.086;2023-01-20T04:37:35;99691.81;;;1.57;85.96
75759;BME280;64371;47.566;19.086;2023-01-20T04:40:37;99699.69;;;1.62;85.64
75759;BME280;64371;47.566;19.086;2023-01-20T04:43:46;99698.41;;;1.65;85.43
75759;BME280;64371;47.566;19.086;2023-01-20T04:46:49;99697.63;;;1.64;85.50
75759;BME280;64371;47.566;19.086;2023-01-20T04:49:55;99703.94;;;1.68;85.74
75759;BME280;64371;47.566;19.086;2023-01-20T04:52:57;99685.38;;;1.60;85.02
75759;BME280;64371;47.566;19.086;2023-01-20T04:56:09;99691.25;;;1.72;85.14
75759;BME280;64371;47.566;19.086;2023-01-20T04:59:17;99690.94;;;1.68;84.66
75759;BME280;64371;47.566;19.086;2023-01-20T05:02:21;99688.97;;;1.75;85.22
75759;BME280;64371;47.566;19.086;2023-01-20T05:05:32;99668.09;;;1.70;84.76
75759;BME280;64371;47.566;19.086;2023-01-20T05:08:34;99645.97;;;1.68;84.69
75759;BME280;64371;47.566;19.086;2023-01-20T05:11:39;99650.25;;;1.74;84.68
75759;BME280;64371;47.566;19.086;2023-01-20T05:14:47;99643.78;;;1.76;84.82
75759;BME280;64371;47.566;19.086;2023-01-20T05:17:49;99639.94;;;1.79;84.71
75759;BME280;64371;47.566;19.086;2023-01-20T05:20:59;99642.28;;;1.80;84.56
75759;BME280;64371;47.566;19.086;2023-01-20T05:24:09;99636.81;;;1.82;85.56
75759;BME280;64371;47.566;19.086;2023-01-20T05:27:12;99643.84;;;1.81;85.35
75759;BME280;64371;47.566;19.086;2023-01-20T05:30:14;99640.00;;;1.84;85.46
75759;BME280;64371;47.566;19.086;2023-01-20T05:33:22;99650.44;;;1.89;85.87
75759;BME280;64371;47.566;19.086;2023-01-20T05:36:32;99647.38;;;1.92;85.71
75759;BME280;64371;47.566;19.086;2023-01-20T05:39:34;99651.09;;;1.96;86.15
75759;BME280;64371;47.566;19.086;2023-01-20T05:42:39;99652.97;;;2.00;86.04
75759;BME280;64371;47.566;19.086;2023-01-20T05:45:48;99651.44;;;2.05;86.17
75759;BME280;64371;47.566;19.086;2023-01-20T05:48:52;99656.97;;;2.08;85.78
75759;BME280;64371;47.566;19.086;2023-01-20T05:51:54;99655.13;;;2.09;86.07
75759;BME280;64371;47.566;19.086;2023-01-20T05:55:03;99646.50;;;2.03;85.93
75759;BME280;64371;47.566;19.086;2023-01-20T05:58:14;99662.22;;;2.13;85.76
75759;BME280;64371;47.566;19.086;2023-01-20T06:01:17;99662.78;;;2.15;86.02
75759;BME280;64371;47.566;19.086;2023-01-20T06:04:21;99658.41;;;2.21;85.82
75759;BME280;64371;47.566;19.086;2023-01-20T06:07:24;99651.94;;;2.23;85.47
75759;BME280;64371;47.566;19.086;2023-01-20T06:10:29;99657.72;;;2.25;85.89
75759;BME280;64371;47.566;19.086;2023-01-20T06:13:34;99659.81;;;2.28;86.34
75759;BME280;64371;47.566;19.086;2023-01-20T06:16:49;99661.69;;;2.33;86.10
75759;BME280;64371;47.566;19.086;2023-01-20T06:19:53;99663.00;;;2.35;85.59
75759;BME280;64371;47.566;19.086;2023-01-20T06:22:57;99659.13;;;2.38;85.63
75759;BME280;64371;47.566;19.086;2023-01-20T06:26:02;99655.53;;;2.39;86.11
75759;BME280;64371;47.566;19.086;2023-01-20T06:29:07;99652.66;;;2.40;86.22
75759;BME280;64371;47.566;19.086;2023-01-20T06:32:14;99653.28;;;2.47;85.99
75759;BME280;64371;47.566;19.086;2023-01-20T06:35:19;99648.84;;;2.48;85.82
75759;BME280;64371;47.566;19.086;2023-01-20T06:38:29;99649.41;;;2.50;85.94
75759;BME280;64371;47.566;19.086;2023-01-20T06:41:34;99653.38;;;2.57;86.07
75759;BME280;64371;47.566;19.086;2023-01-20T06:44:41;99665.44;;;2.63;85.56
75759;BME280;64371;47.566;19.086;2023-01-20T06:47:48;99659.50;;;2.68;85.44
75759;BME280;64371;47.566;19.086;2023-01-20T06:51:18;99667.38;;;2.73;85.60
75759;BME280;64371;47.566;19.086;2023-01-20T06:54:25;99679.66;;;2.78;84.89
75759;BME280;64371;47.566;19.086;2023-01-20T06:57:33;99674.44;;;2.78;85.23
75759;BME280;64371;47.566;19.086;2023-01-20T07:00:38;99683.03;;;2.78;85.02
75759;BME280;64371;47.566;19.086;2023-01-20T07:03:46;99691.94;;;2.82;84.90
75759;BME280;64371;47.566;19.086;2023-01-20T07:06:48;99691.66;;;2.84;84.78
75759;BME280;64371;47.566;19.086;2023-01-20T07:09:53;99687.03;;;2.86;84.75
75759;BME280;64371;47.566;19.086;2023-01-20T07:12:59;99677.38;;;2.86;84.77
75759;BME280;64371;47.566;19.086;2023-01-20T07:19:49;99691.50;;;2.90;84.40
75759;BME280;64371;47.566;19.086;2023-01-20T07:23:01;99696.75;;;2.95;84.62
75759;BME280;64371;47.566;19.086;2023-01-20T07:26:10;99703.53;;;2.96;84.25
75759;BME280;64371;47.566;19.086;2023-01-20T07:29:15;99712.97;;;3.02;84.58
75759;BME280;64371;47.566;19.086;2023-01-20T07:32:19;99708.31;;;3.04;84.45
75759;BME280;64371;47.566;19.086;2023-01-20T07:35:24;99713.03;;;3.07;84.74
75759;BME280;64371;47.566;19.086;2023-01-20T07:38:29;99710.44;;;3.07;84.25
75759;BME280;64371;47.566;19.086;2023-01-20T07:41:41;99719.31;;;3.11;83.92
75759;BME280;64371;47.566;19.086;2023-01-20T07:44:49;99707.09;;;3.12;84.16
75759;BME280;64371;47.566;19.086;2023-01-20T07:48:04;99708.16;;;3.16;83.87
75759;BME280;64371;47.566;19.086;2023-01-20T07:51:12;99712.41;;;3.22;83.98
75759;BME280;64371;47.566;19.086;2023-01-20T07:54:18;99715.97;;;3.16;83.31
75759;BME280;64371;47.566;19.086;2023-01-20T07:57:24;99713.50;;;3.04;82.08
75759;BME280;64371;47.566;19.086;2023-01-20T08:00:31;99725.69;;;2.99;82.71
75759;BME280;64371;47.566;19.086;2023-01-20T08:03:49;99725.41;;;2.95;82.61
75759;BME280;64371;47.566;19.086;2023-01-20T08:06:53;99731.56;;;2.89;82.21
75759;BME280;64371;47.566;19.086;2023-01-20T08:09:58;99731.28;;;2.86;82.54
75759;BME280;64371;47.566;19.086;2023-01-20T08:13:12;99729.63;;;2.80;82.57
75759;BME280;64371;47.566;19.086;2023-01-20T08:16:19;99732.28;;;2.85;83.22
75759;BME280;64371;47.566;19.086;2023-01-20T08:19:32;99737.50;;;2.85;82.45
75759;BME280;64371;47.566;19.086;2023-01-20T08:22:40;99734.41;;;2.88;83.36
75759;BME280;64371;47.566;19.086;2023-01-20T08:25:55;99733.69;;;2.92;83.43
75759;BME280;64371;47.566;19.086;2023-01-20T08:29:06;99737.63;;;2.95;83.01
75759;BME280;64371;47.566;19.086;2023-01-20T08:32:09;99732.09;;;2.91;82.63
75759;BME280;64371;47.566;19.086;2023-01-20T08:35:14;99734.34;;;2.83;82.66
75759;BME280;64371;47.566;19.086;2023-01-20T08:38:17;99731.50;;;2.84;82.23
75759;BME280;64371;47.566;19.086;2023-01-20T08:41:29;99734.16;;;2.89;82.23
75759;BME280;64371;47.566;19.086;2023-01-20T08:44:32;99733.16;;;2.90;81.77
75759;BME280;64371;47.566;19.086;2023-01-20T08:47:44;99735.25;;;2.93;82.20
75759;BME280;64371;47.566;19.086;2023-01-20T08:50:49;99741.03;;;2.95;81.65
75759;BME280;64371;47.566;19.086;2023-01-20T08:53:51;99735.81;;;2.95;81.37
75759;BME280;64371;47.566;19.086;2023-01-20T08:56:54;99740.44;;;2.93;80.88
75759;BME280;64371;47.566;19.086;2023-01-20T09:00:10;99742.84;;;2.95;81.33
75759;BME280;64371;47.566;19.086;2023-01-20T09:03:13;99745.19;;;2.96;80.74
75759;BME280;64371;47.566;19.086;2023-01-20T09:06:15;99746.28;;;3.00;81.11
75759;BME280;64371;47.566;19.086;2023-01-20T09:09:30;99745.78;;;3.03;81.27
75759;BME280;64371;47.566;19.086;2023-01-20T09:12:43;99759.84;;;3.02;81.22
75759;BME280;64371;47.566;19.086;2023-01-20T09:15:53;99752.84;;;3.08;81.11
75759;BME280;64371;47.566;19.086;2023-01-20T09:19:01;99743.53;;;3.12;81.11
75759;BME280;64371;47.566;19.086;2023-01-20T09:22:24;99749.56;;;3.17;80.71
75759;BME280;64371;47.566;19.086;2023-01-20T09:25:27;99737.88;;;3.20;81.22
75759;BME280;64371;47.566;19.086;2023-01-20T09:28:34;99734.25;;;3.21;80.30
75759;BME280;64371;47.566;19.086;2023-01-20T09:31:41;99731.16;;;3.24;80.22
75759;BME280;64371;47.566;19.086;2023-01-20T09:34:47;99713.75;;;3.29;80.48
75759;BME280;64371;47.566;19.086;2023-01-20T09:37:52;99712.25;;;3.33;80.39
75759;BME280;64371;47.566;19.086;2023-01-20T09:41:18;99699.53;;;3.42;80.31
75759;BME280;64371;47.566;19.086;2023-01-20T09:45:28;99691.31;;;3.55;80.16
75759;BME280;64371;47.566;19.086;2023-01-20T09:48:59;99699.44;;;3.64;79.72
75759;BME280;64371;47.566;19.086;2023-01-20T09:52:28;99683.84;;;3.69;79.54
75759;BME280;64371;47.566;19.086;2023-01-20T09:56:12;99683.66;;;3.75;79.66
75759;BME280;64371;47.566;19.086;2023-01-20T09:59:45;99677.44;;;3.81;80.08
75759;BME280;64371;47.566;19.086;2023-01-20T10:03:12;99667.34;;;3.90;79.82
75759;BME280;64371;47.566;19.086;2023-01-20T10:06:53;99657.75;;;4.00;79.71
75759;BME280;64371;47.566;19.086;2023-01-20T10:10:27;99645.03;;;4.09;79.71
75759;BME280;64371;47.566;19.086;2023-01-20T10:13:51;99632.00;;;4.14;78.60
75759;BME280;64371;47.566;19.086;2023-01-20T10:17:19;99614.53;;;4.20;78.76
75759;BME280;64371;47.566;19.086;2023-01-20T10:24:03;99597.16;;;4.45;77.62
75759;BME280;64371;47.566;19.086;2023-01-20T10:27:15;99607.09;;;4.53;77.33
75759;BME280;64371;47.566;19.086;2023-01-20T10:30:18;99612.06;;;4.55;76.99
75759;BME280;64371;47.566;19.086;2023-01-20T10:33:37;99612.34;;;4.68;76.75
75759;BME280;64371;47.566;19.086;2023-01-20T10:36:57;99616.03;;;4.83;76.05
75759;BME280;64371;47.566;19.086;2023-01-20T10:40:17;99616.31;;;4.91;75.56
75759;BME280;64371;47.566;19.086;2023-01-20T10:43:20;99616.06;;;4.93;75.26
75759;BME280;64371;47.566;19.086;2023-01-20T10:46:52;99620.25;;;4.94;75.50
75759;BME280;64371;47.566;19.086;2023-01-20T10:50:37;99634.34;;;4.93;75.58
75759;BME280;64371;47.566;19.086;2023-01-20T10:54:52;99641.13;;;4.89;75.12
75759;BME280;64371;47.566;19.086;2023-01-20T10:57:28;99639.00;;;4.81;73.97
75759;BME280;64371;47.566;19.086;2023-01-20T11:00:38;99656.25;;;4.82;74.12
75759;BME280;64371;47.566;19.086;2023-01-20T11:04:15;99653.09;;;4.80;73.43
75759;BME280;64371;47.566;19.086;2023-01-20T11:07:20;99655.47;;;4.81;72.94
75759;BME280;64371;47.566;19.086;2023-01-20T11:10:31;99645.56;;;4.83;72.88
75759;BME280;64371;47.566;19.086;2023-01-20T11:13:36;99644.50;;;4.79;72.68
75759;BME280;64371;47.566;19.086;2023-01-20T11:16:41;99637.69;;;4.78;72.74
75759;BME280;64371;47.566;19.086;2023-01-20T11:19:50;99638.50;;;4.79;72.44
75759;BME280;64371;47.566;19.086;2023-01-20T11:22:58;99632.22;;;4.75;72.53
75759;BME280;64371;47.566;19.086;2023-01-20T11:26:32;99622.28;;;4.72;72.94
75759;BME280;64371;47.566;19.086;2023-01-20T11:29:42;99606.09;;;4.69;72.23
75759;BME280;64371;47.566;19.086;2023-01-20T11:33:21;99609.75;;;4.68;72.37
75759;BME280;64371;47.566;19.086;2023-01-20T11:36:28;99601.38;;;4.66;73.22
75759;BME280;64371;47.566;19.086;2023-01-20T11:42:56;99590.94;;;4.61;73.63
75759;BME280;64371;47.566;19.086;2023-01-20T11:46:26;99583.91;;;4.62;73.65
75759;BME280;64371;47.566;19.086;2023-01-20T11:49:30;99579.19;;;4.59;73.34
75759;BME280;64371;47.566;19.086;2023-01-20T11:52:40;99583.38;;;4.55;73.39
75759;BME280;64371;47.566;19.086;2023-01-20T11:56:15;99590.41;;;4.54;75.06
75759;BME280;64371;47.566;19.086;2023-01-20T11:59:31;99585.41;;;4.43;74.08
75759;BME280;64371;47.566;19.086;2023-01-20T12:02:37;99573.66;;;4.40;73.94
75759;BME280;64371;47.566;19.086;2023-01-20T12:09:14;99582.25;;;4.41;75.11
75759;BME280;64371;47.566;19.086;2023-01-20T12:12:43;99580.69;;;4.35;75.38
75759;BME280;64371;47.566;19.086;2023-01-20T12:15:52;99569.47;;;4.34;75.74
75759;BME280;64371;47.566;19.086;2023-01-20T12:19:02;99579.09;;;4.29;75.85
75759;BME280;64371;47.566;19.086;2023-01-20T12:22:17;99571.50;;;4.22;75.99
75759;BME280;64371;47.566;19.086;2023-01-20T12:25:28;99583.75;;;4.17;75.58
75759;BME280;64371;47.566;19.086;2023-01-20T12:31:56;99584.19;;;3.98;76.71
75759;BME280;64371;47.566;19.086;2023-01-20T12:35:12;99585.50;;;3.96;76.21
75759;BME280;64371;47.566;19.086;2023-01-20T12:38:20;99579.97;;;3.92;76.64
75759;BME280;64371;47.566;19.086;2023-01-20T12:41:47;99573.19;;;3.86;77.55
75759;BME280;64371;47.566;19.086;2023-01-20T12:51:20;99583.22;;;3.63;79.42
75759;BME280;64371;47.566;19.086;2023-01-20T12:54:43;99579.84;;;3.62;79.20
75759;BME280;64371;47.566;19.086;2023-01-20T13:05:43;99588.41;;;3.58;80.46
75759;BME280;64371;47.566;19.086;2023-01-20T13:12:12;99591.25;;;3.56;80.28
75759;BME280;64371;47.566;19.086;2023-01-20T13:15:26;99598.53;;;3.54;80.01
75759;BME280;64371;47.566;19.086;2023-01-20T13:18:39;99588.88;;;3.50;81.04
75759;BME280;64371;47.566;19.086;2023-01-20T13:21:54;99592.50;;;3.44;81.11
75759;BME280;64371;47.566;19.086;2023-01-20T13:25:12;99604.38;;;3.34;82.89
75759;BME280;64371;47.566;19.086;2023-01-20T13:28:27;99609.50;;;3.19;83.21
75759;BME280;64371;47.566;19.086;2023-01-20T13:34:44;99607.09;;;2.86;84.64
75759;BME280;64371;47.566;19.086;2023-01-20T13:37:59;99604.66;;;2.75;84.90
75759;BME280;64371;47.566;19.086;2023-01-20T13:41:46;99598.59;;;2.64;84.71
75759;BME280;64371;47.566;19.086;2023-01-20T13:48:22;99604.56;;;2.64;85.98
75759;BME280;64371;47.566;19.086;2023-01-20T13:54:41;99608.72;;;2.39;85.29
75759;BME280;64371;47.566;19.086;2023-01-20T13:57:50;99596.78;;;2.21;85.05
75759;BME280;64371;47.566;19.086;2023-01-20T14:01:00;99602.53;;;2.23;85.94
75759;BME280;64371;47.566;19.086;2023-01-20T14:04:15;99613.44;;;2.20;86.17
75759;BME280;64371;47.566;19.086;2023-01-20T14:07:26;99626.59;;;2.14;86.13
75759;BME280;64371;47.566;19.086;2023-01-20T14:10:33;99627.25;;;2.04;86.00
75759;BME280;64371;47.566;19.086;2023-01-20T14:13:55;99634.97;;;1.99;86.21
75759;BME280;64371;47.566;19.086;2023-01-20T14:17:00;99632.63;;;1.97;86.68
75759;BME280;64371;47.566;19.086;2023-01-20T14:20:19;99635.16;;;1.92;86.49
75759;BME280;64371;47.566;19.086;2023-01-20T14:23:28;99634.06;;;1.88;86.81
75759;BME280;64371;47.566;19.086;2023-01-20T14:26:37;99633.22;;;1.83;86.44
75759;BME280;64371;47.566;19.086;2023-01-20T14:29:47;99647.16;;;1.77;86.88
75759;BME280;64371;47.566;19.086;2023-01-20T14:32:52;99635.19;;;1.76;87.19
75759;BME280;64371;47.566;19.086;2023-01-20T14:35:57;99638.81;;;1.75;86.98
75759;BME280;64371;47.566;19.086;2023-01-20T14:39:17;99640.00;;;1.67;87.17
75759;BME280;64371;47.566;19.086;2023-01-20T14:42:21;99641.03;;;1.66;87.86
75759;BME280;64371;47.566;19.086;2023-01-20T14:45:28;99648.34;;;1.69;87.79
75759;BME280;64371;47.566;19.086;2023-01-20T14:48:41;99645.19;;;1.67;87.77
75759;BME280;64371;47.566;19.086;2023-01-20T14:51:48;99650.88;;;1.64;87.67
75759;BME280;64371;47.566;19.086;2023-01-20T14:54:51;99646.63;;;1.58;87.83
75759;BME280;64371;47.566;19.086;2023-01-20T14:58:01;99650.47;;;1.56;88.13
75759;BME280;64371;47.566;19.086;2023-01-20T15:01:39;99648.13;;;1.54;87.95
75759;BME280;64371;47.566;19.086;2023-01-20T15:04:48;99644.97;;;1.52;88.38
75759;BME280;64371;47.566;19.086;2023-01-20T15:11:23;99656.84;;;1.48;88.11
75759;BME280;64371;47.566;19.086;2023-01-20T15:14:36;99663.09;;;1.47;88.51
75759;BME280;64371;47.566;19.086;2023-01-20T15:21:26;99668.66;;;1.39;88.37
75759;BME280;64371;47.566;19.086;2023-01-20T15:24:38;99677.25;;;1.40;88.49
75759;BME280;64371;47.566;19.086;2023-01-20T15:27:44;99668.91;;;1.38;88.46
75759;BME280;64371;47.566;19.086;2023-01-20T15:30:57;99673.06;;;1.39;88.20
75759;BME280;64371;47.566;19.086;2023-01-20T15:34:01;99671.72;;;1.36;88.63
75759;BME280;64371;47.566;19.086;2023-01-20T15:37:22;99673.31;;;1.37;88.78
75759;BME280;64371;47.566;19.086;2023-01-20T15:40:28;99663.22;;;1.41;88.65
75759;BME280;64371;47.566;19.086;2023-01-20T15:43:37;99673.84;;;1.39;88.63
75759;BME280;64371;47.566;19.086;2023-01-20T15:46:41;99674.88;;;1.38;88.74
75759;BME280;64371;47.566;19.086;2023-01-20T15:49:48;99671.50;;;1.38;88.61
75759;BME280;64371;47.566;19.086;2023-01-20T15:52:53;99677.50;;;1.38;88.67
75759;BME280;64371;47.566;19.086;2023-01-20T15:55:56;99662.84;;;1.32;88.27
75759;BME280;64371;47.566;19.086;2023-01-20T15:59:13;99668.72;;;1.27;88.56
75759;BME280;64371;47.566;19.086;2023-01-20T16:02:19;99680.63;;;1.23;88.28
75759;BME280;64371;47.566;19.086;2023-01-20T16:05:35;99681.88;;;1.21;88.23
75759;BME280;64371;47.566;19.086;2023-01-20T16:08:41;99675.78;;;1.15;88.30
75759;BME280;64371;47.566;19.086;2023-01-20T16:11:53;99687.69;;;1.11;88.47
75759;BME280;64371;47.566;19.086;2023-01-20T16:15:00;99702.34;;;1.06;88.21
75759;BME280;64371;47.566;19.086;2023-01-20T16:18:15;99701.56;;;1.05;87.80
75759;BME280;64371;47.566;19.086;2023-01-20T16:21:20;99710.84;;;1.01;87.97
75759;BME280;64371;47.566;19.086;2023-01-20T16:24:24;99698.88;;;1.00;88.07
75759;BME280;64371;47.566;19.086;2023-01-20T16:27:27;99686.16;;;0.99;87.96
75759;BME280;64371;47.566;19.086;2023-01-20T16:30:32;99684.81;;;0.96;87.70
75759;BME280;64371;47.566;19.086;2023-01-20T16:33:34;99689.91;;;0.91;88.18
75759;BME280;64371;47.566;19.086;2023-01-20T16:36:38;99700.47;;;0.90;88.28
75759;BME280;64371;47.566;19.086;2023-01-20T16:39:50;99692.69;;;0.90;87.68
75759;BME280;64371;47.566;19.086;2023-01-20T16:42:59;99690.59;;;0.87;88.39
75759;BME280;64371;47.566;19.086;2023-01-20T16:46:15;99693.00;;;0.77;87.83
75759;BME280;64371;47.566;19.086;2023-01-20T16:49:23;99700.31;;;0.80;88.36
75759;BME280;64371;47.566;19.086;2023-01-20T16:52:34;99713.97;;;0.75;88.70
75759;BME280;64371;47.566;19.086;2023-01-20T16:55:37;99707.44;;;0.73;88.98
75759;BME280;64371;47.566;19.086;2023-01-20T16:58:45;99699.56;;;0.68;88.44
75759;BME280;64371;47.566;19.086;2023-01-20T17:01:51;99707.81;;;0.64;88.99
75759;BME280;64371;47.566;19.086;2023-01-20T17:04:57;99711.19;;;0.65;89.03
75759;BME280;64371;47.566;19.086;2023-01-20T17:08:08;99716.38;;;0.65;89.45
75759;BME280;64371;47.566;19.086;2023-01-20T17:11:36;99696.06;;;0.62;89.22
75759;BME280;64371;47.566;19.086;2023-01-20T17:14:52;99698.13;;;0.60;89.25
75759;BME280;64371;47.566;19.086;2023-01-20T17:17:56;99700.47;;;0.61;89.38
75759;BME280;64371;47.566;19.086;2023-01-20T17:21:07;99695.72;;;0.58;89.58
75759;BME280;64371;47.566;19.086;2023-01-20T17:24:12;99701.16;;;0.57;89.66
75759;BME280;64371;47.566;19.086;2023-01-20T17:27:20;99699.81;;;0.54;89.68
75759;BME280;64371;47.566;19.086;2023-01-20T17:30:27;99690.44;;;0.53;90.03
75759;BME280;64371;47.566;19.086;2023-01-20T17:33:32;99694.06;;;0.52;90.19
75759;BME280;64371;47.566;19.086;2023-01-20T17:36:35;99696.22;;;0.55;90.26
75759;BME280;64371;47.566;19.086;2023-01-20T17:39:40;99698.00;;;0.55;90.02
75759;BME280;64371;47.566;19.086;2023-01-20T17:42:46;99696.22;;;0.55;89.91
75759;BME280;64371;47.566;19.086;2023-01-20T17:45:49;99699.56;;;0.56;89.95
75759;BME280;64371;47.566;19.086;2023-01-20T17:49:00;99699.13;;;0.59;89.71
75759;BME280;64371;47.566;19.086;2023-01-20T17:52:03;99701.16;;;0.57;89.83
75759;BME280;64371;47.566;19.086;2023-01-20T17:55:08;99701.72;;;0.59;89.69
75759;BME280;64371;47.566;19.086;2023-01-20T17:58:17;99700.22;;;0.63;89.61
75759;BME280;64371;47.566;19.086;2023-01-20T18:01:31;99696.19;;;0.67;89.40
75759;BME280;64371;47.566;19.086;2023-01-20T18:04:34;99695.72;;;0.70;88.67